sensor_id;sensor_type;location;lat;lon;timestamp;pressure;altitude;pressure_sealevel;temperature;humidity
19576;BME280;41589;51.196;7.074;2023-03-11T00:02:22;97851.94;;;1.55;100.00
19576;BME280;41589;51.196;7.074;2023-03-11T00:07:23;97860.31;;;1.52;100.00
19576;BME280;41589;51.196;7.074;2023-03-11T00:12:23;97872.97;;;1.53;100.00
19576;BME280;41589;51.196;7.074;2023-03-11T00:17:25;97893.94;;;1.54;100.00
19576;BME280;41589;51.196;7.074;2023-03-11T00:22:25;97888.31;;;1.57;100.00
19576;BME280;41589;51.196;7.074;2023-03-11T00:27:26;97899.72;;;1.43;100.00
19576;BME280;41589;51.196;7.074;2023-03-11T00:32:28;97899.84;;;1.56;100.00
19576;BME280;41589;51.196;7.074;2023-03-11T00:37:32;97915.78;;;1.52;100.00
19576;BME280;41589;51.196;7.074;2023-03-11T00:42:33;97917.97;;;1.44;100.00
19576;BME280;41589;51.196;7.074;2023-03-11T00:47:33;97918.13;;;1.53;100.00
19576;BME280;41589;51.196;7.074;2023-03-11T00:52:36;97930.00;;;1.54;100.00
19576;BME280;41589;51.196;7.074;2023-03-11T00:57:38;97928.53;;;1.49;100.00
19576;BME280;41589;51.196;7.074;2023-03-11T01:02:39;97952.28;;;1.50;100.00
19576;BME280;41589;51.196;7.074;2023-03-11T01:07:46;97956.41;;;1.42;100.00
19576;BME280;41589;51.196;7.074;2023-03-11T01:12:47;97961.94;;;1.42;100.00
19576;BME280;41589;51.196;7.074;2023-03-11T01:17:48;97971.47;;;1.41;100.00
19576;BME280;41589;51.196;7.074;2023-03-11T01:22:49;97971.28;;;1.32;100.00
19576;BME280;41589;51.196;7.074;2023-03-11T01:27:50;97976.69;;;1.39;100.00
19576;BME280;41589;51.196;7.074;2023-03-11T01:32:52;97970.66;;;1.44;100.00
19576;BME280;41589;51.196;7.074;2023-03-11T01:37:53;97982.09;;;1.62;100.00
19576;BME280;41589;51.196;7.074;2023-03-11T01:42:54;97978.25;;;1.76;100.00
19576;BME280;41589;51.196;7.074;2023-03-11T01:47:55;97981.97;;;1.69;100.00
19576;BME280;41589;51.196;7.074;2023-03-11T01:52:56;97986.88;;;1.62;100.00
19576;BME280;41589;51.196;7.074;2023-03-11T01:57:59;97977.34;;;1.63;100.00
19576;BME280;41589;51.196;7.074;2023-03-11T02:03:08;97983.28;;;1.81;100.00
19576;BME280;41589;51.196;7.074;2023-03-11T02:08:10;98000.06;;;1.74;100.00
19576;BME280;41589;51.196;7.074;2023-03-11T02:13:14;97999.59;;;1.79;100.00
19576;BME280;41589;51.196;7.074;2023-03-11T02:18:17;97995.25;;;1.94;100.00
19576;BME280;41589;51.196;7.074;2023-03-11T02:23:30;97989.59;;;1.82;100.00
19576;BME280;41589;51.196;7.074;2023-03-11T02:28:35;98006.53;;;1.87;100.00
19576;BME280;41589;51.196;7.074;2023-03-11T02:33:40;97989.88;;;1.87;100.00
19576;BME280;41589;51.196;7.074;2023-03-11T02:38:43;97995.97;;;1.98;100.00
19576;BME280;41589;51.196;7.074;2023-03-11T02:43:45;97997.34;;;1.90;100.00
19576;BME280;41589;51.196;7.074;2023-03-11T02:48:50;98004.19;;;1.86;100.00
19576;BME280;41589;51.196;7.074;2023-03-11T02:53:58;98011.91;;;1.78;100.00
19576;BME280;41589;51.196;7.074;2023-03-11T02:59:03;98015.50;;;1.75;100.00
19576;BME280;41589;51.196;7.074;2023-03-11T03:04:07;98021.00;;;1.79;100.00
19576;BME280;41589;51.196;7.074;2023-03-11T03:09:08;98027.22;;;1.66;100.00
19576;BME280;41589;51.196;7.074;2023-03-11T03:14:09;98022.59;;;1.60;100.00
19576;BME280;41589;51.196;7.074;2023-03-11T03:19:10;98033.47;;;1.51;100.00
19576;BME280;41589;51.196;7.074;2023-03-11T03:24:11;98036.97;;;1.55;100.00
19576;BME280;41589;51.196;7.074;2023-03-11T03:29:12;98034.22;;;1.55;100.00
19576;BME280;41589;51.196;7.074;2023-03-11T03:34:12;98043.66;;;1.57;100.00
19576;BME280;41589;51.196;7.074;2023-03-11T03:39:13;98045.78;;;1.30;100.00
19576;BME280;41589;51.196;7.074;2023-03-11T03:44:15;98043.09;;;1.26;100.00
19576;BME280;41589;51.196;7.074;2023-03-11T03:49:16;98045.53;;;1.44;100.00
19576;BME280;41589;51.196;7.074;2023-03-11T03:54:18;98063.28;;;1.46;100.00
19576;BME280;41589;51.196;7.074;2023-03-11T03:59:19;98065.63;;;1.48;100.00
19576;BME280;41589;51.196;7.074;2023-03-11T04:04:25;98077.44;;;1.52;100.00
19576;BME280;41589;51.196;7.074;2023-03-11T04:09:26;98087.75;;;1.52;100.00
19576;BME280;41589;51.196;7.074;2023-03-11T04:14:27;98084.06;;;1.38;100.00
19576;BME280;41589;51.196;7.074;2023-03-11T04:19:32;98084.59;;;1.30;100.00
19576;BME280;41589;51.196;7.074;2023-03-11T04:24:32;98098.34;;;1.37;100.00
19576;BME280;41589;51.196;7.074;2023-03-11T04:29:33;98109.22;;;1.47;100.00
19576;BME280;41589;51.196;7.074;2023-03-11T04:34:34;98097.41;;;1.43;100.00
19576;BME280;41589;51.196;7.074;2023-03-11T04:39:37;98114.97;;;1.37;100.00
19576;BME280;41589;51.196;7.074;2023-03-11T04:44:39;98124.22;;;1.30;100.00
19576;BME280;41589;51.196;7.074;2023-03-11T04:49:40;98131.47;;;1.24;100.00
19576;BME280;41589;51.196;7.074;2023-03-11T04:54:40;98134.53;;;1.30;100.00
19576;BME280;41589;51.196;7.074;2023-03-11T04:59:49;98135.31;;;1.30;100.00
19576;BME280;41589;51.196;7.074;2023-03-11T05:04:51;98131.31;;;1.31;100.00
19576;BME280;41589;51.196;7.074;2023-03-11T05:09:52;98138.06;;;1.30;100.00
19576;BME280;41589;51.196;7.074;2023-03-11T05:14:52;98138.84;;;1.31;100.00
19576;BME280;41589;51.196;7.074;2023-03-11T05:19:54;98142.38;;;1.35;100.00
19576;BME280;41589;51.196;7.074;2023-03-11T05:25:05;98151.91;;;1.34;100.00
19576;BME280;41589;51.196;7.074;2023-03-11T05:30:08;98164.66;;;1.28;100.00
19576;BME280;41589;51.196;7.074;2023-03-11T05:35:11;98165.13;;;1.23;100.00
19576;BME280;41589;51.196;7.074;2023-03-11T05:40:12;98165.03;;;1.30;100.00
19576;BME280;41589;51.196;7.074;2023-03-11T05:45:13;98162.16;;;1.33;100.00
19576;BME280;41589;51.196;7.074;2023-03-11T05:50:16;98175.06;;;1.43;100.00
19576;BME280;41589;51.196;7.074;2023-03-11T05:55:19;98169.38;;;1.51;100.00
19576;BME280;41589;51.196;7.074;2023-03-11T06:00:20;98177.28;;;1.52;100.00
19576;BME280;41589;51.196;7.074;2023-03-11T06:05:25;98183.59;;;1.53;100.00
19576;BME280;41589;51.196;7.074;2023-03-11T06:10:26;98188.81;;;1.51;100.00
19576;BME280;41589;51.196;7.074;2023-03-11T06:15:27;98201.47;;;1.52;100.00
19576;BME280;41589;51.196;7.074;2023-03-11T06:20:28;98194.72;;;1.53;100.00
19576;BME280;41589;51.196;7.074;2023-03-11T06:25:29;98199.44;;;1.56;100.00
19576;BME280;41589;51.196;7.074;2023-03-11T06:30:30;98201.00;;;1.57;100.00
19576;BME280;41589;51.196;7.074;2023-03-11T06:35:44;98214.44;;;1.58;100.00
19576;BME280;41589;51.196;7.074;2023-03-11T06:40:44;98222.75;;;1.58;100.00
19576;BME280;41589;51.196;7.074;2023-03-11T06:45:45;98223.47;;;1.62;100.00
19576;BME280;41589;51.196;7.074;2023-03-11T06:50:56;98225.44;;;1.62;100.00
19576;BME280;41589;51.196;7.074;2023-03-11T06:56:05;98242.22;;;1.78;100.00
19576;BME280;41589;51.196;7.074;2023-03-11T07:01:18;98245.09;;;1.71;100.00
19576;BME280;41589;51.196;7.074;2023-03-11T07:06:22;98253.53;;;1.87;100.00
19576;BME280;41589;51.196;7.074;2023-03-11T07:11:26;98262.69;;;1.84;100.00
19576;BME280;41589;51.196;7.074;2023-03-11T07:16:33;98273.94;;;1.77;100.00
19576;BME280;41589;51.196;7.074;2023-03-11T07:21:40;98277.22;;;1.92;100.00
19576;BME280;41589;51.196;7.074;2023-03-11T07:26:41;98292.63;;;1.96;100.00
19576;BME280;41589;51.196;7.074;2023-03-11T07:31:42;98295.91;;;2.11;100.00
19576;BME280;41589;51.196;7.074;2023-03-11T07:36:42;98311.13;;;2.03;100.00
19576;BME280;41589;51.196;7.074;2023-03-11T07:41:43;98325.34;;;2.28;100.00
19576;BME280;41589;51.196;7.074;2023-03-11T07:46:44;98336.72;;;2.34;100.00
19576;BME280;41589;51.196;7.074;2023-03-11T07:51:45;98343.72;;;2.42;100.00
19576;BME280;41589;51.196;7.074;2023-03-11T07:56:45;98345.47;;;2.32;100.00
19576;BME280;41589;51.196;7.074;2023-03-11T08:01:46;98353.22;;;2.21;100.00
19576;BME280;41589;51.196;7.074;2023-03-11T08:06:46;98355.59;;;2.43;100.00
19576;BME280;41589;51.196;7.074;2023-03-11T08:11:47;98354.09;;;2.58;100.00
19576;BME280;41589;51.196;7.074;2023-03-11T08:16:47;98367.72;;;2.72;100.00
19576;BME280;41589;51.196;7.074;2023-03-11T08:21:48;98353.81;;;2.72;100.00
19576;BME280;41589;51.196;7.074;2023-03-11T08:26:48;98364.97;;;2.88;100.00
19576;BME280;41589;51.196;7.074;2023-03-11T08:31:49;98373.19;;;2.56;100.00
19576;BME280;41589;51.196;7.074;2023-03-11T08:36:49;98376.81;;;2.33;100.00
19576;BME280;41589;51.196;7.074;2023-03-11T08:41:49;98373.34;;;2.49;100.00
19576;BME280;41589;51.196;7.074;2023-03-11T08:46:50;98370.41;;;2.56;100.00
19576;BME280;41589;51.196;7.074;2023-03-11T08:51:50;98379.31;;;2.47;100.00
19576;BME280;41589;51.196;7.074;2023-03-11T08:56:50;98387.50;;;2.54;100.00
19576;BME280;41589;51.196;7.074;2023-03-11T09:01:51;98382.97;;;2.64;100.00
19576;BME280;41589;51.196;7.074;2023-03-11T09:06:51;98384.97;;;2.83;100.00
19576;BME280;41589;51.196;7.074;2023-03-11T09:11:51;98380.97;;;3.20;100.00
19576;BME280;41589;51.196;7.074;2023-03-11T09:16:52;98391.09;;;2.95;100.00
19576;BME280;41589;51.196;7.074;2023-03-11T09:21:52;98397.44;;;3.31;100.00
19576;BME280;41589;51.196;7.074;2023-03-11T09:26:52;98390.50;;;3.39;100.00
19576;BME280;41589;51.196;7.074;2023-03-11T09:31:53;98374.69;;;3.36;100.00
19576;BME280;41589;51.196;7.074;2023-03-11T09:36:53;98391.97;;;3.96;100.00
19576;BME280;41589;51.196;7.074;2023-03-11T09:41:56;98383.56;;;4.29;100.00
19576;BME280;41589;51.196;7.074;2023-03-11T09:52:14;98401.97;;;3.94;100.00
19576;BME280;41589;51.196;7.074;2023-03-11T09:57:22;98412.78;;;3.56;100.00
19576;BME280;41589;51.196;7.074;2023-03-11T10:02:23;98402.63;;;3.82;100.00
19576;BME280;41589;51.196;7.074;2023-03-11T10:07:32;98408.47;;;3.87;100.00
19576;BME280;41589;51.196;7.074;2023-03-11T10:12:51;98425.44;;;3.93;100.00
19576;BME280;41589;51.196;7.074;2023-03-11T10:18:26;98431.78;;;3.77;100.00
19576;BME280;41589;51.196;7.074;2023-03-11T10:24:10;98441.66;;;3.45;100.00
19576;BME280;41589;51.196;7.074;2023-03-11T10:29:28;98437.81;;;3.92;100.00
19576;BME280;41589;51.196;7.074;2023-03-11T10:34:43;98433.13;;;4.21;100.00
19576;BME280;41589;51.196;7.074;2023-03-11T10:39:47;98433.41;;;4.85;100.00
19576;BME280;41589;51.196;7.074;2023-03-11T10:44:47;98437.91;;;4.95;100.00
19576;BME280;41589;51.196;7.074;2023-03-11T10:49:48;98445.41;;;4.69;100.00
19576;BME280;41589;51.196;7.074;2023-03-11T10:54:59;98448.00;;;4.76;100.00
19576;BME280;41589;51.196;7.074;2023-03-11T11:00:06;98454.25;;;4.51;100.00
19576;BME280;41589;51.196;7.074;2023-03-11T11:10:22;98437.25;;;4.91;100.00
19576;BME280;41589;51.196;7.074;2023-03-11T11:16:15;98431.84;;;5.13;100.00
19576;BME280;41589;51.196;7.074;2023-03-11T11:20:55;98436.13;;;5.43;100.00
19576;BME280;41589;51.196;7.074;2023-03-11T11:26:02;98427.00;;;5.42;100.00
19576;BME280;41589;51.196;7.074;2023-03-11T11:31:07;98426.22;;;5.55;100.00
19576;BME280;41589;51.196;7.074;2023-03-11T11:36:19;98431.03;;;5.00;100.00
19576;BME280;41589;51.196;7.074;2023-03-11T11:41:24;98432.69;;;4.68;100.00
19576;BME280;41589;51.196;7.074;2023-03-11T11:46:54;98442.41;;;4.76;100.00
19576;BME280;41589;51.196;7.074;2023-03-11T11:52:17;98457.03;;;4.35;100.00
19576;BME280;41589;51.196;7.074;2023-03-11T11:57:21;98455.63;;;4.43;100.00
19576;BME280;41589;51.196;7.074;2023-03-11T12:07:36;98437.72;;;4.73;100.00
19576;BME280;41589;51.196;7.074;2023-03-11T12:12:47;98443.09;;;5.09;100.00
19576;BME280;41589;51.196;7.074;2023-03-11T12:17:51;98435.44;;;5.26;100.00
19576;BME280;41589;51.196;7.074;2023-03-11T12:23:29;98445.03;;;5.38;100.00
19576;BME280;41589;51.196;7.074;2023-03-11T12:38:45;98445.16;;;5.21;100.00
19576;BME280;41589;51.196;7.074;2023-03-11T12:54:27;98447.63;;;5.32;100.00
19576;BME280;41589;51.196;7.074;2023-03-11T13:05:29;98448.09;;;5.56;100.00
19576;BME280;41589;51.196;7.074;2023-03-11T13:10:42;98444.50;;;5.43;100.00
19576;BME280;41589;51.196;7.074;2023-03-11T13:15:43;98446.16;;;5.28;100.00
19576;BME280;41589;51.196;7.074;2023-03-11T13:20:46;98434.97;;;5.15;100.00
19576;BME280;41589;51.196;7.074;2023-03-11T13:41:42;98438.28;;;5.64;100.00
19576;BME280;41589;51.196;7.074;2023-03-11T13:46:49;98444.91;;;5.29;100.00
19576;BME280;41589;51.196;7.074;2023-03-11T13:51:53;98440.56;;;4.86;100.00
19576;BME280;41589;51.196;7.074;2023-03-11T13:56:57;98446.16;;;4.57;100.00
19576;BME280;41589;51.196;7.074;2023-03-11T14:02:10;98448.78;;;4.48;100.00
19576;BME280;41589;51.196;7.074;2023-03-11T14:07:28;98447.44;;;4.52;100.00
19576;BME280;41589;51.196;7.074;2023-03-11T14:12:30;98460.50;;;4.55;100.00
19576;BME280;41589;51.196;7.074;2023-03-11T14:17:30;98455.97;;;4.61;100.00
19576;BME280;41589;51.196;7.074;2023-03-11T14:22:31;98448.41;;;4.91;100.00
19576;BME280;41589;51.196;7.074;2023-03-11T14:27:32;98453.56;;;5.05;100.00
19576;BME280;41589;51.196;7.074;2023-03-11T14:32:33;98450.56;;;5.00;100.00
19576;BME280;41589;51.196;7.074;2023-03-11T14:37:36;98452.31;;;5.48;100.00
19576;BME280;41589;51.196;7.074;2023-03-11T14:42:38;98468.09;;;5.80;100.00
19576;BME280;41589;51.196;7.074;2023-03-11T14:47:44;98472.13;;;6.04;100.00
19576;BME280;41589;51.196;7.074;2023-03-11T14:58:27;98465.94;;;6.22;100.00
19576;BME280;41589;51.196;7.074;2023-03-11T15:03:30;98464.28;;;6.25;100.00
19576;BME280;41589;51.196;7.074;2023-03-11T15:08:47;98475.72;;;6.05;100.00
19576;BME280;41589;51.196;7.074;2023-03-11T15:13:50;98474.69;;;6.11;100.00
19576;BME280;41589;51.196;7.074;2023-03-11T15:18:51;98481.75;;;6.03;100.00
19576;BME280;41589;51.196;7.074;2023-03-11T15:24:01;98484.63;;;5.74;100.00
19576;BME280;41589;51.196;7.074;2023-03-11T15:29:15;98473.81;;;5.76;100.00
19576;BME280;41589;51.196;7.074;2023-03-11T15:39:16;98473.59;;;5.96;100.00
19576;BME280;41589;51.196;7.074;2023-03-11T15:44:28;98475.03;;;5.75;100.00
19576;BME280;41589;51.196;7.074;2023-03-11T15:49:29;98486.06;;;5.53;100.00
19576;BME280;41589;51.196;7.074;2023-03-11T15:54:30;98485.94;;;5.57;100.00
19576;BME280;41589;51.196;7.074;2023-03-11T15:59:30;98483.03;;;5.61;100.00
19576;BME280;41589;51.196;7.074;2023-03-11T16:04:31;98489.31;;;5.65;100.00
19576;BME280;41589;51.196;7.074;2023-03-11T16:09:32;98489.97;;;5.69;100.00
19576;BME280;41589;51.196;7.074;2023-03-11T16:14:33;98486.53;;;5.65;100.00
19576;BME280;41589;51.196;7.074;2023-03-11T16:19:33;98488.00;;;5.82;100.00
19576;BME280;41589;51.196;7.074;2023-03-11T16:24:33;98483.28;;;5.66;100.00
19576;BME280;41589;51.196;7.074;2023-03-11T16:29:34;98476.34;;;5.45;100.00
19576;BME280;41589;51.196;7.074;2023-03-11T16:34:35;98484.50;;;5.52;100.00
19576;BME280;41589;51.196;7.074;2023-03-11T16:39:35;98482.13;;;5.38;100.00
19576;BME280;41589;51.196;7.074;2023-03-11T16:44:37;98491.41;;;5.48;100.00
19576;BME280;41589;51.196;7.074;2023-03-11T16:49:38;98487.84;;;5.47;100.00
19576;BME280;41589;51.196;7.074;2023-03-11T16:54:38;98497.53;;;5.30;100.00
19576;BME280;41589;51.196;7.074;2023-03-11T16:59:38;98494.84;;;5.39;100.00
19576;BME280;41589;51.196;7.074;2023-03-11T17:04:39;98499.13;;;5.15;100.00
19576;BME280;41589;51.196;7.074;2023-03-11T17:09:39;98503.03;;;5.17;100.00
19576;BME280;41589;51.196;7.074;2023-03-11T17:14:39;98509.13;;;5.00;100.00
19576;BME280;41589;51.196;7.074;2023-03-11T17:19:40;98518.03;;;4.94;100.00
19576;BME280;41589;51.196;7.074;2023-03-11T17:24:40;98526.53;;;5.04;100.00
19576;BME280;41589;51.196;7.074;2023-03-11T17:29:41;98531.63;;;4.92;100.00
19576;BME280;41589;51.196;7.074;2023-03-11T17:34:41;98536.44;;;4.76;100.00
19576;BME280;41589;51.196;7.074;2023-03-11T17:39:42;98540.22;;;4.53;100.00
19576;BME280;41589;51.196;7.074;2023-03-11T17:44:42;98530.53;;;4.41;100.00
19576;BME280;41589;51.196;7.074;2023-03-11T17:49:42;98530.09;;;4.43;100.00
19576;BME280;41589;51.196;7.074;2023-03-11T17:54:43;98531.09;;;4.36;100.00
19576;BME280;41589;51.196;7.074;2023-03-11T17:59:44;98529.84;;;4.21;100.00
19576;BME280;41589;51.196;7.074;2023-03-11T18:04:49;98538.53;;;4.06;100.00
19576;BME280;41589;51.196;7.074;2023-03-11T18:09:52;98535.91;;;3.99;100.00
19576;BME280;41589;51.196;7.074;2023-03-11T18:14:52;98538.25;;;4.01;100.00
19576;BME280;41589;51.196;7.074;2023-03-11T18:19:52;98543.97;;;3.94;100.00
19576;BME280;41589;51.196;7.074;2023-03-11T18:24:53;98546.19;;;3.83;100.00
19576;BME280;41589;51.196;7.074;2023-03-11T18:29:53;98546.94;;;3.67;100.00
19576;BME280;41589;51.196;7.074;2023-03-11T18:34:54;98548.84;;;3.70;100.00
19576;BME280;41589;51.196;7.074;2023-03-11T18:39:54;98544.25;;;3.63;100.00
19576;BME280;41589;51.196;7.074;2023-03-11T18:44:54;98541.38;;;3.47;100.00
19576;BME280;41589;51.196;7.074;2023-03-11T18:49:55;98538.09;;;3.52;100.00
19576;BME280;41589;51.196;7.074;2023-03-11T18:54:55;98538.47;;;3.54;100.00
19576;BME280;41589;51.196;7.074;2023-03-11T18:59:55;98547.59;;;3.55;100.00
19576;BME280;41589;51.196;7.074;2023-03-11T19:04:56;98560.34;;;3.52;100.00
19576;BME280;41589;51.196;7.074;2023-03-11T19:09:56;98559.66;;;3.48;100.00
19576;BME280;41589;51.196;7.074;2023-03-11T19:14:57;98566.78;;;3.49;100.00
19576;BME280;41589;51.196;7.074;2023-03-11T19:19:57;98568.06;;;3.44;100.00
19576;BME280;41589;51.196;7.074;2023-03-11T19:24:57;98564.56;;;3.40;100.00
19576;BME280;41589;51.196;7.074;2023-03-11T19:29:58;98563.34;;;3.41;100.00
19576;BME280;41589;51.196;7.074;2023-03-11T19:34:58;98563.78;;;3.40;100.00
19576;BME280;41589;51.196;7.074;2023-03-11T19:39:58;98570.56;;;3.39;100.00
19576;BME280;41589;51.196;7.074;2023-03-11T19:44:59;98576.91;;;3.39;100.00
19576;BME280;41589;51.196;7.074;2023-03-11T19:49:59;98576.97;;;3.36;100.00
19576;BME280;41589;51.196;7.074;2023-03-11T19:55:00;98591.03;;;3.29;100.00
19576;BME280;41589;51.196;7.074;2023-03-11T20:00:00;98592.59;;;3.30;100.00
19576;BME280;41589;51.196;7.074;2023-03-11T20:05:00;98567.75;;;3.19;100.00
19576;BME280;41589;51.196;7.074;2023-03-11T20:10:01;98583.09;;;3.27;100.00
19576;BME280;41589;51.196;7.074;2023-03-11T20:15:03;98596.22;;;3.27;100.00
19576;BME280;41589;51.196;7.074;2023-03-11T20:20:04;98587.53;;;3.25;100.00
19576;BME280;41589;51.196;7.074;2023-03-11T20:25:05;98584.97;;;3.14;100.00
19576;BME280;41589;51.196;7.074;2023-03-11T20:30:06;98583.75;;;3.15;100.00
19576;BME280;41589;51.196;7.074;2023-03-11T20:35:06;98579.31;;;3.17;100.00
19576;BME280;41589;51.196;7.074;2023-03-11T20:40:08;98570.63;;;3.15;100.00
19576;BME280;41589;51.196;7.074;2023-03-11T20:45:09;98584.09;;;3.17;100.00
19576;BME280;41589;51.196;7.074;2023-03-11T20:50:11;98578.59;;;3.13;100.00
19576;BME280;41589;51.196;7.074;2023-03-11T20:55:11;98582.66;;;3.09;100.00
19576;BME280;41589;51.196;7.074;2023-03-11T21:00:12;98579.09;;;3.08;100.00
19576;BME280;41589;51.196;7.074;2023-03-11T21:05:13;98579.81;;;3.12;100.00
19576;BME280;41589;51.196;7.074;2023-03-11T21:10:13;98581.88;;;3.08;100.00
19576;BME280;41589;51.196;7.074;2023-03-11T21:15:14;98585.63;;;2.98;100.00
19576;BME280;41589;51.196;7.074;2023-03-11T21:20:15;98583.38;;;2.89;100.00
19576;BME280;41589;51.196;7.074;2023-03-11T21:25:16;98569.28;;;2.80;100.00
19576;BME280;41589;51.196;7.074;2023-03-11T21:30:16;98586.78;;;2.77;100.00
19576;BME280;41589;51.196;7.074;2023-03-11T21:35:16;98581.53;;;2.83;100.00
19576;BME280;41589;51.196;7.074;2023-03-11T21:40:17;98582.88;;;2.75;100.00
19576;BME280;41589;51.196;7.074;2023-03-11T21:45:17;98573.31;;;2.76;100.00
19576;BME280;41589;51.196;7.074;2023-03-11T21:50:18;98569.75;;;2.75;100.00
19576;BME280;41589;51.196;7.074;2023-03-11T21:55:18;98558.03;;;2.64;100.00
19576;BME280;41589;51.196;7.074;2023-03-11T22:00:18;98558.16;;;2.57;100.00
19576;BME280;41589;51.196;7.074;2023-03-11T22:05:19;98565.66;;;2.60;100.00
19576;BME280;41589;51.196;7.074;2023-03-11T22:10:19;98564.97;;;2.52;100.00
19576;BME280;41589;51.196;7.074;2023-03-11T22:15:20;98563.53;;;2.44;100.00
19576;BME280;41589;51.196;7.074;2023-03-11T22:20:20;98578.38;;;2.57;100.00
19576;BME280;41589;51.196;7.074;2023-03-11T22:25:21;98578.81;;;2.56;100.00
19576;BME280;41589;51.196;7.074;2023-03-11T22:30:21;98570.38;;;2.63;100.00
19576;BME280;41589;51.196;7.074;2023-03-11T22:35:22;98565.28;;;2.58;100.00
19576;BME280;41589;51.196;7.074;2023-03-11T22:40:22;98564.03;;;2.62;100.00
19576;BME280;41589;51.196;7.074;2023-03-11T22:45:23;98574.00;;;2.60;100.00
19576;BME280;41589;51.196;7.074;2023-03-11T22:50:23;98574.59;;;2.71;100.00
19576;BME280;41589;51.196;7.074;2023-03-11T22:55:23;98564.97;;;2.76;100.00
19576;BME280;41589;51.196;7.074;2023-03-11T23:00:24;98578.16;;;2.72;100.00
19576;BME280;41589;51.196;7.074;2023-03-11T23:05:24;98581.38;;;2.70;100.00
19576;BME280;41589;51.196;7.074;2023-03-11T23:10:25;98579.06;;;2.65;100.00
19576;BME280;41589;51.196;7.074;2023-03-11T23:15:25;98572.00;;;2.60;100.00
19576;BME280;41589;51.196;7.074;2023-03-11T23:20:25;98573.25;;;2.56;100.00
19576;BME280;41589;51.196;7.074;2023-03-11T23:25:26;98568.03;;;2.58;100.00
19576;BME280;41589;51.196;7.074;2023-03-11T23:30:26;98570.03;;;2.57;100.00
19576;BME280;41589;51.196;7.074;2023-03-11T23:35:27;98561.59;;;2.64;100.00
19576;BME280;41589;51.196;7.074;2023-03-11T23:40:27;98558.09;;;2.60;100.00
19576;BME280;41589;51.196;7.074;2023-03-11T23:45:28;98554.94;;;2.58;100.00
19576;BME280;41589;51.196;7.074;2023-03-11T23:50:28;98556.16;;;2.57;100.00
19576;BME280;41589;51.196;7.074;2023-03-11T23:55:28;98552.16;;;2.58;100.00
